Terminal Aerodrome Forecast
Issued by NWS

Home | Current Version | Previous Version | Graphics & Text | Print | Product List | Glossary On
Versions: 1 2 3 4 5 6 7 8 9 10 11 12 13 14
000
FTUS43 KPAH 211739
TAFOWB
TAF
KOWB 211739Z 2118/2218 19010KT P6SM OVC014
     FM212000 19010KT P6SM BKN020
     FM212100 19009KT P6SM BKN035
     FM220900 17013G21KT P6SM OVC070
     FM221300 16014G25KT 3SM SHRA OVC025
     FM221600 18016G28KT P6SM -SHRA BKN015
     FM221700 18017G29KT P6SM BKN015=

USA.gov is the U.S. government's official web portal to all federal, state and local government web resources and services.